createdAt,value
2018-04-01T00:01:43.780Z,2.78
2018-04-01T00:05:45.084Z,2.86
2018-04-01T00:11:46.292Z,3.4
2018-04-01T00:15:47.484Z,3.35
2018-04-01T00:21:48.715Z,3.03
2018-04-01T00:25:49.999Z,3.83
2018-04-01T00:27:51.159Z,2.96
2018-04-01T00:31:52.375Z,3.8
2018-04-01T00:37:53.650Z,4.81
2018-04-01T00:41:54.950Z,4.2
2018-04-01T00:47:56.168Z,3.29
2018-04-01T00:51:57.541Z,3.37
2018-04-01T00:53:58.683Z,3.75
2018-04-01T00:58:00.009Z,3.88
2018-04-01T01:04:01.157Z,3.86
2018-04-01T01:08:02.491Z,3.72
2018-04-01T01:14:03.795Z,3.3
2018-04-01T01:18:05.012Z,3.22
2018-04-01T01:20:06.213Z,3.31
2018-04-01T01:24:07.518Z,3.27
2018-04-01T01:30:08.746Z,3.32
2018-04-01T01:34:10.045Z,3.51
2018-04-01T01:40:11.308Z,5.03
2018-04-01T01:44:12.526Z,5.27
2018-04-01T01:46:13.776Z,4.78
2018-04-01T01:50:14.982Z,5.98
2018-04-01T01:56:16.208Z,4.12
2018-04-01T02:00:17.433Z,4.9
2018-04-01T02:06:18.675Z,6.73
2018-04-01T02:10:20.037Z,5.84
2018-04-01T02:12:21.187Z,6.23
2018-04-01T02:16:22.532Z,5.89
2018-04-01T02:22:23.735Z,5.58
2018-04-01T02:26:24.957Z,7.67
2018-04-01T02:32:26.252Z,7.5
2018-04-01T02:36:27.511Z,7.56
2018-04-01T02:38:28.652Z,5.39
2018-04-01T02:42:29.879Z,5.85
2018-04-01T02:48:31.188Z,10.17
2018-04-01T02:52:32.434Z,6.76
2018-04-01T02:58:33.765Z,5.75
2018-04-01T03:02:34.970Z,8.58
2018-04-01T03:04:36.269Z,5.46
2018-04-01T03:08:37.437Z,6.46
2018-04-01T03:14:38.702Z,8.63
2018-04-01T03:18:40.024Z,7.26
2018-04-01T03:24:41.306Z,5.58
2018-04-01T03:28:42.682Z,6.3
2018-04-01T03:30:43.777Z,6.75
2018-04-01T03:34:45.096Z,6.6
2018-04-01T03:40:46.307Z,6.37
2018-04-01T03:44:47.690Z,6.86
2018-04-01T03:50:48.985Z,6.54
2018-04-01T03:54:50.238Z,8.92
2018-04-01T03:56:51.477Z,8
2018-04-01T04:00:52.559Z,8.28
2018-04-01T04:06:53.785Z,7.44
2018-04-01T04:10:55.018Z,7.48
2018-04-01T04:16:56.275Z,7.86
2018-04-01T04:20:57.616Z,8.05
2018-04-01T04:22:58.852Z,5.41
2018-04-01T04:27:00.120Z,6.85
2018-04-01T04:33:01.416Z,5.62
2018-04-01T04:37:02.651Z,5.65
2018-04-01T04:43:03.877Z,4.66
2018-04-01T04:47:05.124Z,4.8
2018-04-01T04:49:06.352Z,2.78
2018-04-01T04:53:07.648Z,3.55
2018-04-01T04:59:08.171Z,3.64
2018-04-01T05:03:09.506Z,3.62
2018-04-01T05:09:10.720Z,4.35
2018-04-01T05:13:11.988Z,4.47
2018-04-01T05:15:13.245Z,2.92
2018-04-01T05:19:14.406Z,3.31
2018-04-01T05:25:15.724Z,3.49
2018-04-01T05:29:17.050Z,5.64
2018-04-01T05:35:18.339Z,5.2
2018-04-01T05:39:18.815Z,3.09
2018-04-01T05:41:20.018Z,6.94
2018-04-01T05:45:21.301Z,5.77
2018-04-01T05:51:22.501Z,2.81
2018-04-01T05:55:23.819Z,3.54
2018-04-01T06:01:25.026Z,5.63
2018-04-01T06:05:26.317Z,4.27
2018-04-01T06:07:27.487Z,4.87
2018-04-01T06:11:28.758Z,5.98
2018-04-01T06:17:30.035Z,4.24
2018-04-01T06:21:31.275Z,4.61
2018-04-01T06:27:32.502Z,4.91
2018-04-01T06:31:33.673Z,4.73
2018-04-01T06:33:34.890Z,9.9
2018-04-01T06:37:36.093Z,8.89
2018-04-01T06:43:37.384Z,4.78
2018-04-01T06:47:38.642Z,5.2
2018-04-01T06:53:40.018Z,6.12
2018-04-01T06:57:41.234Z,6.22
2018-04-01T06:59:42.469Z,6.1
2018-04-01T07:03:43.712Z,6.32
2018-04-01T07:09:44.990Z,5.39
2018-04-01T07:13:45.733Z,8.12
2018-04-01T07:19:47.039Z,9.18
2018-04-01T07:23:48.355Z,11.96
2018-04-01T07:25:49.602Z,9.32
2018-04-01T07:29:50.814Z,10.45
2018-04-01T07:35:52.031Z,8.59
2018-04-01T07:39:53.404Z,10.79
2018-04-01T07:45:54.734Z,7.11
2018-04-01T07:49:56.029Z,9.19
2018-04-01T07:51:57.234Z,7.96
2018-04-01T07:55:58.516Z,8.07
2018-04-01T08:01:59.966Z,7.22
2018-04-01T08:06:01.209Z,8.6
2018-04-01T08:12:01.778Z,6.3
2018-04-01T08:16:03.142Z,8.99
2018-04-01T08:18:04.400Z,6.32
2018-04-01T08:22:05.662Z,8.21
2018-04-01T08:28:06.987Z,6.78
2018-04-01T08:32:08.267Z,8.61
2018-04-01T08:38:09.641Z,7.74
2018-04-01T08:42:10.643Z,9.06
2018-04-01T08:44:11.852Z,6.98
2018-04-01T08:48:12.988Z,7.64
2018-04-01T08:54:14.333Z,6.12
2018-04-01T08:58:15.533Z,7.91
2018-04-01T09:04:16.800Z,8.08
2018-04-01T09:10:18.243Z,5.43
2018-04-01T09:20:19.580Z,6.49
2018-04-01T09:20:19.715Z,5.67
2018-04-01T09:24:21.106Z,7.98
2018-04-01T09:30:22.389Z,7.98
2018-04-01T09:36:23.656Z,6.99
2018-04-01T09:40:24.905Z,7.72
2018-04-01T09:46:26.185Z,5.9
2018-04-01T09:50:27.476Z,7.03
2018-04-01T09:56:28.680Z,7.8
2018-04-01T10:02:30.058Z,5.44
2018-04-01T10:06:31.435Z,4.63
2018-04-01T10:12:32.655Z,5.54
2018-04-01T10:16:33.942Z,4.44
2018-04-01T10:22:35.250Z,6.4
2018-04-01T10:28:36.607Z,6.02
2018-04-01T10:32:37.979Z,5.6
2018-04-01T10:38:39.157Z,5.21
2018-04-01T10:42:40.561Z,6.13
2018-04-01T10:48:41.816Z,6.67
2018-04-01T10:54:43.226Z,3.85
2018-04-01T10:58:44.085Z,3.84
2018-04-01T11:04:45.432Z,5.37
2018-04-01T11:08:46.648Z,6.5
2018-04-01T11:14:47.865Z,3.52
2018-04-01T11:20:49.146Z,4.2
2018-04-01T11:24:50.414Z,5.57
2018-04-01T11:30:51.696Z,4.69
2018-04-01T11:34:53.017Z,4.28
2018-04-01T11:40:54.269Z,4.44
2018-04-01T11:46:55.547Z,3.37
2018-04-01T11:50:56.880Z,3.13
2018-04-01T11:56:58.151Z,3.63
2018-04-01T12:00:59.464Z,3.42
2018-04-01T12:07:00.665Z,5.65
2018-04-01T12:13:01.932Z,4.97
2018-04-01T12:17:02.325Z,3.46
2018-04-01T12:23:03.595Z,4.87
2018-04-01T12:27:04.975Z,3.4
2018-04-01T12:29:06.192Z,5.27
2018-04-01T12:33:06.451Z,4.59
2018-04-01T12:39:07.654Z,3.23
2018-04-01T12:43:08.884Z,3.95
2018-04-01T12:49:10.105Z,3.87
2018-04-01T12:53:10.352Z,2.63
2018-04-01T12:55:11.601Z,4.37
2018-04-01T12:59:12.894Z,3.2
2018-04-01T13:05:14.132Z,2.86
2018-04-01T13:09:15.340Z,3.75
2018-04-01T13:15:16.649Z,3.91
2018-04-01T13:19:17.464Z,3.37
2018-04-01T13:21:18.693Z,4.03
2018-04-01T13:25:19.865Z,3.05
2018-04-01T13:31:21.140Z,1.97
2018-04-01T13:35:22.469Z,2.4
2018-04-01T13:41:23.734Z,2.74
2018-04-01T13:45:25.015Z,2.59
2018-04-01T13:47:26.221Z,2.51
2018-04-01T13:51:26.708Z,3.1
2018-04-01T13:57:27.951Z,4.25
2018-04-01T14:01:29.428Z,3.67
2018-04-01T14:07:30.707Z,2.91
2018-04-01T14:11:32.045Z,2.64
2018-04-01T14:13:33.175Z,2.14
2018-04-01T14:17:34.495Z,2.43
2018-04-01T14:23:35.707Z,3.16
2018-04-01T14:27:36.986Z,3.05
2018-04-01T14:33:38.203Z,2.41
2018-04-01T14:37:39.445Z,3.91
2018-04-01T14:39:40.772Z,3.11
2018-04-01T14:43:42.100Z,2.34
2018-04-01T14:49:43.341Z,2.59
2018-04-01T14:53:44.675Z,2.93
2018-04-01T14:59:46.154Z,3.79
2018-04-01T15:03:47.282Z,2.46
2018-04-01T15:05:48.499Z,3.52
2018-04-01T15:09:49.828Z,3.52
2018-04-01T15:15:51.133Z,3.84
2018-04-01T15:19:52.464Z,2.29
2018-04-01T15:25:53.682Z,2.72
2018-04-01T15:29:54.176Z,3.86
2018-04-01T15:31:55.493Z,3.3
2018-04-01T15:35:56.751Z,2.99
2018-04-01T15:41:58.070Z,4.07
2018-04-01T15:45:59.434Z,3.78
2018-04-01T15:52:00.632Z,3.59
2018-04-01T15:56:01.053Z,3.71
2018-04-01T15:58:01.588Z,3.03
2018-04-01T16:02:02.843Z,3.62
2018-04-01T16:08:04.129Z,3.08
2018-04-01T16:12:05.406Z,3.3
2018-04-01T16:18:06.597Z,2.76
2018-04-01T16:22:07.897Z,3.29
2018-04-01T16:24:09.060Z,6.31
2018-04-01T16:28:10.258Z,7.48
2018-04-01T16:34:11.469Z,4.36
2018-04-01T16:38:11.840Z,5.68
2018-04-01T16:44:13.247Z,2.58
2018-04-01T16:50:14.560Z,2.92
2018-04-01T16:54:15.835Z,3.03
2018-04-01T17:00:17.119Z,4.42
2018-04-01T17:04:18.039Z,4.27
2018-04-01T17:10:19.306Z,4.09
2018-04-01T17:16:20.597Z,2.52
2018-04-01T17:20:21.830Z,2.92
2018-04-01T17:26:23.205Z,7.99
2018-04-01T17:30:24.530Z,4.75
2018-04-01T17:36:25.288Z,2.91
2018-04-01T17:42:26.481Z,7.32
2018-04-01T17:46:27.750Z,5.5
2018-04-01T17:52:28.692Z,6.18
2018-04-01T17:56:29.976Z,5.96
2018-04-01T18:02:31.252Z,5.46
2018-04-01T18:08:32.557Z,5.47
2018-04-01T18:12:33.831Z,5.32
2018-04-01T18:18:35.166Z,3.89
2018-04-01T18:22:36.526Z,5.17
2018-04-01T18:28:37.740Z,7.68
2018-04-01T18:34:39.129Z,4.66
2018-04-01T18:38:40.365Z,4.78
2018-04-01T18:44:41.578Z,5.17
2018-04-01T18:48:42.921Z,4.37
2018-04-01T18:54:44.202Z,6.22
2018-04-01T19:00:45.534Z,4.42
2018-04-01T19:04:46.805Z,5.59
2018-04-01T19:10:48.079Z,4.64
2018-04-01T19:14:49.497Z,4.94
2018-04-01T19:20:50.697Z,5.04
2018-04-01T19:26:52.011Z,3.69
2018-04-01T19:30:53.337Z,4.32
2018-04-01T19:36:54.765Z,7.08
2018-04-01T19:40:56.029Z,6.63
2018-04-01T19:42:57.190Z,6.91
2018-04-01T19:46:58.561Z,9
2018-04-01T19:52:59.808Z,4.88
2018-04-01T19:57:01.113Z,8.77
2018-04-01T20:03:02.322Z,5.07
2018-04-01T20:07:03.558Z,4.26
2018-04-01T20:09:04.747Z,3.32
2018-04-01T20:13:06.002Z,5.02
2018-04-01T20:19:07.346Z,9.07
2018-04-01T20:23:08.602Z,6.65
2018-04-01T20:29:09.878Z,4.91
2018-04-01T20:33:11.172Z,6.72
2018-04-01T20:35:12.292Z,7.58
2018-04-01T20:39:13.611Z,6.6
2018-04-01T20:45:14.833Z,4.77
2018-04-01T20:49:16.160Z,5.86
2018-04-01T20:55:17.349Z,7.13
2018-04-01T20:59:18.765Z,6
2018-04-01T21:01:19.870Z,6.01
2018-04-01T21:05:21.101Z,7.31
2018-04-01T21:11:22.327Z,5.87
2018-04-01T21:15:23.667Z,6.99
2018-04-01T21:21:24.988Z,5.15
2018-04-01T21:25:26.819Z,7.37
2018-04-01T21:27:28.042Z,6.38
2018-04-01T21:31:29.266Z,9.03
2018-04-01T21:37:30.085Z,6.06
2018-04-01T21:41:31.406Z,8.88
2018-04-01T21:47:32.772Z,5.24
2018-04-01T21:51:34.038Z,6.91
2018-04-01T21:53:34.865Z,5.25
2018-04-01T21:57:36.151Z,6.32
2018-04-01T22:03:37.575Z,6.18
2018-04-01T22:07:38.808Z,5.5
2018-04-01T22:13:40.158Z,5.35
2018-04-01T22:17:41.556Z,7.52
2018-04-01T22:19:42.774Z,3.98
2018-04-01T22:23:44.073Z,7.55
2018-04-01T22:29:45.326Z,5.29
2018-04-01T22:33:46.656Z,5.12
2018-04-01T22:39:47.862Z,4.49
2018-04-01T22:43:49.159Z,6.67
2018-04-01T22:45:50.295Z,5.56
2018-04-01T22:49:51.525Z,6.32
2018-04-01T22:55:52.515Z,8
2018-04-01T22:59:53.756Z,8.05
2018-04-01T23:05:55.074Z,8.28
2018-04-01T23:09:56.265Z,9.01
2018-04-01T23:11:57.519Z,7.51
2018-04-01T23:15:58.704Z,8.53
2018-04-01T23:22:00.004Z,6.56
2018-04-01T23:26:01.175Z,8.13
2018-04-01T23:32:02.466Z,5.8
2018-04-01T23:36:03.675Z,6.78
2018-04-01T23:38:04.913Z,8.26
2018-04-01T23:42:06.206Z,7.53
2018-04-01T23:48:07.395Z,5.69
2018-04-01T23:52:08.711Z,7.36
2018-04-01T23:58:10.098Z,7.86
